Time;durP1;ratioP1;P1;durP2;ratioP2;P2;SDS_P1;SDS_P2;PMS_P1;PMS_P2;Temp;Humidity;BMP_temperature;BMP_pressure;BME280_temperature;BME280_humidity;BME280_pressure;Samples;Min_cycle;Max_cycle;Signal;HPM_P1;HPM_P2
2021/12/17 00:04:38;;;;;;;;;;;2.50;91.20;;;;;;5055558;28;20280;-66
2021/12/17 00:07:07;;;;;;;;;;;2.50;91.30;;;;;;5054241;28;19947;-65
2021/12/17 00:09:33;;;;;;;;;;;2.60;91.30;;;;;;5054489;28;19961;-65
2021/12/17 00:11:59;;;;;;;;;;;2.60;91.30;;;;;;5055189;28;20435;-65
2021/12/17 00:14:27;;;;;;;;;;;2.60;91.30;;;;;;5055320;28;20286;-65
2021/12/17 00:16:53;;;;;;;;;;;2.60;91.30;;;;;;5053918;28;19970;-65
2021/12/17 00:48:55;;;;;;;;;;;2.70;90.80;;;;;;5055032;28;19981;-65
2021/12/17 00:53:58;;;;;;;;;;;2.70;90.70;;;;;;5054941;28;20036;-65
2021/12/17 00:56:24;;;;;;;;;;;2.70;90.70;;;;;;5054478;28;19948;-65
2021/12/17 00:58:50;;;;;;;;;;;2.60;90.50;;;;;;5054413;28;19952;-65
2021/12/17 01:01:17;;;;;;;;;;;2.40;90.40;;;;;;5054408;28;20071;-65
2021/12/17 01:03:43;;;;;;;;;;;2.50;91.00;;;;;;5054412;28;19942;-65
2021/12/17 01:06:09;;;;;;;;;;;2.50;91.00;;;;;;5054386;28;19970;-65
2021/12/17 01:08:34;;;;;;;;;;;2.50;91.00;;;;;;5052881;28;20026;-65
2021/12/17 01:11:00;;;;;;;;;;;2.60;91.00;;;;;;5054076;28;19985;-65
2021/12/17 01:13:26;;;;;;;;;;;2.60;91.00;;;;;;5054228;28;19994;-65
2021/12/17 01:15:52;;;;;;;;;;;2.70;90.90;;;;;;5052775;28;20337;-65
2021/12/17 01:18:20;;;;;;;;;;;2.60;90.80;;;;;;5054024;28;20067;-65
2021/12/17 01:21:21;;;;;;;;;;;2.70;90.70;;;;;;5052920;28;19950;-65
2021/12/17 01:37:22;;;;;;;;;;;2.60;90.70;;;;;;5053724;28;20520;-65
2021/12/17 01:42:08;;;;;;;;;;;2.70;90.60;;;;;;5053682;28;20207;-65
2021/12/17 01:44:35;;;;;;;;;;;2.70;90.40;;;;;;5053648;28;20272;-65
2021/12/17 01:47:01;;;;;;;;;;;2.70;90.30;;;;;;5053555;28;20401;-65
2021/12/17 02:00:07;;;;;;;;;;;3.00;90.00;;;;;;5053710;28;19975;-65
2021/12/17 02:02:42;;;;;;;;;;;3.00;89.80;;;;;;5053320;28;19948;-65
2021/12/17 02:05:08;;;;;;;;;;;3.10;89.70;;;;;;5053343;28;19993;-65
2021/12/17 02:07:34;;;;;;;;;;;3.10;89.50;;;;;;5053263;28;19938;-66
2021/12/17 02:28:59;;;;;;;;;;;3.00;90.20;;;;;;5052994;28;20419;-65
2021/12/17 02:33:54;;;;;;;;;;;3.00;90.50;;;;;;5053265;28;20085;-65
2021/12/17 02:36:24;;;;;;;;;;;3.00;90.50;;;;;;5052917;28;20352;-65
2021/12/17 02:38:50;;;;;;;;;;;3.10;90.40;;;;;;5052900;28;20041;-65
2021/12/17 02:46:44;;;;;;;;;;;3.20;90.00;;;;;;5053125;28;19949;-65
2021/12/17 02:49:10;;;;;;;;;;;3.20;89.50;;;;;;5052808;28;19946;-65
2021/12/17 02:51:35;;;;;;;;;;;3.10;89.40;;;;;;5052776;28;19943;-65
2021/12/17 02:54:01;;;;;;;;;;;3.20;89.00;;;;;;5052789;28;19944;-65
2021/12/17 02:56:27;;;;;;;;;;;2.90;88.60;;;;;;5052793;28;19943;-65
2021/12/17 02:58:54;;;;;;;;;;;2.60;87.50;;;;;;5052684;28;20007;-65
2021/12/17 03:01:20;;;;;;;;;;;2.40;88.40;;;;;;5052716;28;20461;-65
2021/12/17 03:03:48;;;;;;;;;;;2.40;90.20;;;;;;5052675;28;20051;-65
2021/12/17 03:06:14;;;;;;;;;;;2.30;91.70;;;;;;5052625;28;19947;-65
2021/12/17 03:08:40;;;;;;;;;;;2.20;91.80;;;;;;5052626;28;19993;-65
2021/12/17 03:11:06;;;;;;;;;;;2.20;91.80;;;;;;5052498;28;20034;-65
2021/12/17 03:13:34;;;;;;;;;;;2.20;92.10;;;;;;5052625;28;19983;-65
2021/12/17 03:16:08;;;;;;;;;;;2.00;92.30;;;;;;5052566;28;19984;-65
2021/12/17 03:23:58;;;;;;;;;;;2.00;92.60;;;;;;5052509;28;19943;-65
2021/12/17 03:26:27;;;;;;;;;;;2.00;92.50;;;;;;5052615;28;19941;-65
2021/12/17 03:28:54;;;;;;;;;;;2.10;92.10;;;;;;5052509;28;20453;-65
2021/12/17 03:31:20;;;;;;;;;;;2.10;91.80;;;;;;5052516;28;19951;-65
2021/12/17 03:33:48;;;;;;;;;;;2.00;91.90;;;;;;5052462;28;19964;-65
2021/12/17 03:36:15;;;;;;;;;;;2.00;92.30;;;;;;5052441;28;19940;-65
2021/12/17 03:38:45;;;;;;;;;;;2.10;92.60;;;;;;5052325;28;19950;-66
2021/12/17 03:43:39;;;;;;;;;;;2.00;92.20;;;;;;5053885;28;19997;-65
2021/12/17 03:46:05;;;;;;;;;;;2.00;92.50;;;;;;5055935;28;19945;-66
2021/12/17 03:48:32;;;;;;;;;;;2.00;92.30;;;;;;5054697;28;19981;-65
2021/12/17 03:50:58;;;;;;;;;;;2.00;92.60;;;;;;5054819;28;20361;-65
2021/12/17 03:53:23;;;;;;;;;;;2.10;92.80;;;;;;5055744;28;20032;-65
2021/12/17 03:55:49;;;;;;;;;;;2.20;92.90;;;;;;5055646;28;20407;-65
2021/12/17 03:58:17;;;;;;;;;;;2.30;92.80;;;;;;5055624;28;19965;-65
2021/12/17 04:00:42;;;;;;;;;;;2.40;92.70;;;;;;5055620;28;19939;-65
2021/12/17 04:03:08;;;;;;;;;;;2.30;92.20;;;;;;5055407;28;19954;-65
2021/12/17 04:05:33;;;;;;;;;;;2.30;92.00;;;;;;5054201;28;20281;-65
2021/12/17 04:07:59;;;;;;;;;;;2.40;91.70;;;;;;5055490;28;19946;-65
2021/12/17 04:10:27;;;;;;;;;;;2.30;91.30;;;;;;5055183;28;19953;-65
2021/12/17 04:12:58;;;;;;;;;;;2.30;91.20;;;;;;5054396;28;19959;-65
2021/12/17 04:15:34;;;;;;;;;;;2.40;91.10;;;;;;5055360;28;19945;-65
2021/12/17 04:17:59;;;;;;;;;;;2.30;90.60;;;;;;5053922;28;19969;-65
2021/12/17 04:20:25;;;;;;;;;;;2.40;90.60;;;;;;5055227;28;19950;-65
2021/12/17 04:22:51;;;;;;;;;;;2.30;89.90;;;;;;5055223;28;19944;-65
2021/12/17 04:25:16;;;;;;;;;;;2.10;90.00;;;;;;5053940;28;20031;-65
2021/12/17 04:27:42;;;;;;;;;;;2.10;89.90;;;;;;5055021;28;19989;-65
2021/12/17 04:30:08;;;;;;;;;;;2.00;89.40;;;;;;5055090;28;20275;-65
2021/12/17 04:32:33;;;;;;;;;;;1.80;88.90;;;;;;5055061;28;19953;-65
2021/12/17 04:34:59;;;;;;;;;;;1.80;89.10;;;;;;5054968;28;19994;-65
2021/12/17 04:37:24;;;;;;;;;;;1.90;89.40;;;;;;5054870;28;19968;-65
2021/12/17 04:39:51;;;;;;;;;;;1.90;89.20;;;;;;5054883;28;20282;-65
2021/12/17 04:42:28;;;;;;;;;;;1.90;88.80;;;;;;5055121;28;19942;-65
2021/12/17 04:44:57;;;;;;;;;;;1.80;88.60;;;;;;5054777;28;19941;-65
2021/12/17 04:57:47;;;;;;;;;;;1.30;88.70;;;;;;5054657;28;19971;-65
2021/12/17 05:00:19;;;;;;;;;;;1.10;89.00;;;;;;5054499;28;19938;-65
2021/12/17 05:02:50;;;;;;;;;;;1.00;89.60;;;;;;5054430;28;19941;-65
2021/12/17 05:05:17;;;;;;;;;;;0.90;90.60;;;;;;5054384;28;19935;-65
2021/12/17 05:07:49;;;;;;;;;;;0.90;91.30;;;;;;5054367;28;19978;-65
2021/12/17 05:20:52;;;;;;;;;;;1.60;92.30;;;;;;5054384;28;19987;-65
2021/12/17 05:23:22;;;;;;;;;;;1.60;91.90;;;;;;5052765;28;20006;-65
2021/12/17 05:25:48;;;;;;;;;;;1.50;92.00;;;;;;5052574;28;19932;-65
2021/12/17 05:28:14;;;;;;;;;;;1.50;91.90;;;;;;5053889;28;20027;-65
2021/12/17 05:30:45;;;;;;;;;;;1.50;91.90;;;;;;5053889;28;20296;-65
2021/12/17 05:33:11;;;;;;;;;;;1.50;91.70;;;;;;5053793;28;19947;-65
2021/12/17 05:35:37;;;;;;;;;;;1.50;91.60;;;;;;5053814;28;20031;-65
2021/12/17 05:38:02;;;;;;;;;;;1.50;91.60;;;;;;5053674;28;20038;-65
2021/12/17 05:40:28;;;;;;;;;;;1.50;91.40;;;;;;5053744;28;19946;-65
2021/12/17 05:42:58;;;;;;;;;;;1.50;91.40;;;;;;5053680;28;19975;-65
2021/12/17 05:45:35;;;;;;;;;;;1.40;91.40;;;;;;5053668;28;19989;-65
2021/12/17 05:48:01;;;;;;;;;;;1.40;91.40;;;;;;5053581;28;20420;-65
2021/12/17 05:50:27;;;;;;;;;;;1.30;91.40;;;;;;5053860;28;19985;-65
2021/12/17 05:52:52;;;;;;;;;;;1.30;91.30;;;;;;5052898;28;19941;-65
2021/12/17 05:55:18;;;;;;;;;;;1.20;91.10;;;;;;5052405;28;19947;-65
2021/12/17 05:57:44;;;;;;;;;;;1.20;91.30;;;;;;5053152;28;19977;-65
2021/12/17 06:00:11;;;;;;;;;;;1.10;91.40;;;;;;5053205;28;19945;-65
2021/12/17 06:02:36;;;;;;;;;;;1.10;91.70;;;;;;5060375;28;19950;-65
2021/12/17 06:05:02;;;;;;;;;;;1.00;91.60;;;;;;5052842;28;19949;-65
2021/12/17 06:07:28;;;;;;;;;;;1.00;91.70;;;;;;5059372;28;19950;-65
2021/12/17 06:09:54;;;;;;;;;;;1.10;91.60;;;;;;5053084;28;20012;-65
2021/12/17 06:12:20;;;;;;;;;;;1.00;91.60;;;;;;5052977;28;20355;-65
2021/12/17 06:14:45;;;;;;;;;;;1.10;91.50;;;;;;5052429;28;19944;-65
2021/12/17 06:17:11;;;;;;;;;;;1.10;91.20;;;;;;5052757;28;20455;-65
2021/12/17 06:19:36;;;;;;;;;;;1.00;91.10;;;;;;5053025;28;20501;-66
2021/12/17 06:22:02;;;;;;;;;;;1.10;91.20;;;;;;5052992;28;20356;-66
2021/12/17 06:24:27;;;;;;;;;;;1.00;91.50;;;;;;5051007;28;19951;-66
2021/12/17 06:26:53;;;;;;;;;;;0.90;91.80;;;;;;5046915;28;20474;-65
2021/12/17 06:29:18;;;;;;;;;;;0.90;91.90;;;;;;5046946;28;19943;-66
2021/12/17 06:31:44;;;;;;;;;;;0.90;91.70;;;;;;5043626;28;19946;-65
2021/12/17 06:34:09;;;;;;;;;;;0.80;91.70;;;;;;5044415;28;19949;-65
2021/12/17 06:36:35;;;;;;;;;;;0.80;91.70;;;;;;5046399;28;20351;-65
2021/12/17 06:39:01;;;;;;;;;;;0.70;91.90;;;;;;5047017;28;20441;-65
2021/12/17 06:41:27;;;;;;;;;;;0.70;92.20;;;;;;5045769;28;19949;-65
2021/12/17 06:43:55;;;;;;;;;;;0.70;92.30;;;;;;5046588;28;19952;-65
2021/12/17 06:46:28;;;;;;;;;;;0.70;92.40;;;;;;5047491;28;19957;-65
2021/12/17 06:49:14;;;;;;;;;;;0.80;92.30;;;;;;5045127;28;20398;-65
2021/12/17 06:55:51;;;;;;;;;;;0.80;92.10;;;;;;5049064;28;19994;-66
2021/12/17 07:10:47;;;;;;;;;;;0.40;91.40;;;;;;5050159;28;20022;-65
2021/12/17 07:21:52;;;;;;;;;;;0.50;93.10;;;;;;5054429;28;19990;-65
2021/12/17 07:31:34;;;;;;;;;;;0.60;92.90;;;;;;5053040;28;19995;-65
2021/12/17 07:36:07;;;;;;;;;;;0.60;92.70;;;;;;5054301;28;19994;-65
2021/12/17 07:40:43;;;;;;;;;;;0.80;92.80;;;;;;5044275;28;19959;-65
2021/12/17 07:43:13;;;;;;;;;;;0.90;92.80;;;;;;5049526;28;19951;-65
2021/12/17 07:45:39;;;;;;;;;;;0.80;92.70;;;;;;5040122;28;19957;-65
2021/12/17 07:48:05;;;;;;;;;;;0.80;92.70;;;;;;5053221;28;19945;-65
2021/12/17 07:50:30;;;;;;;;;;;0.80;92.90;;;;;;5052208;28;19953;-65
2021/12/17 07:52:56;;;;;;;;;;;0.80;92.90;;;;;;5052623;28;20454;-65
2021/12/17 07:55:21;;;;;;;;;;;0.90;93.30;;;;;;5055239;28;20453;-65
2021/12/17 07:57:47;;;;;;;;;;;0.90;93.40;;;;;;5051826;28;20453;-65
2021/12/17 08:00:12;;;;;;;;;;;1.00;93.40;;;;;;5049114;28;20033;-65
2021/12/17 08:02:38;;;;;;;;;;;1.00;93.40;;;;;;5052925;28;20461;-65
2021/12/17 08:05:04;;;;;;;;;;;1.00;93.40;;;;;;5051410;28;19946;-65
2021/12/17 08:07:29;;;;;;;;;;;1.00;93.40;;;;;;5049103;28;20011;-65
2021/12/17 08:09:57;;;;;;;;;;;1.00;93.30;;;;;;5052827;28;19957;-65
2021/12/17 08:12:23;;;;;;;;;;;1.00;93.20;;;;;;5046049;28;20039;-65
2021/12/17 08:14:48;;;;;;;;;;;1.00;93.40;;;;;;5048564;28;20040;-65
2021/12/17 08:32:34;;;;;;;;;;;0.90;92.90;;;;;;5050059;28;19972;-66
2021/12/17 08:35:00;;;;;;;;;;;1.00;92.90;;;;;;5047452;28;19947;-65
2021/12/17 08:37:26;;;;;;;;;;;1.00;92.90;;;;;;5050968;28;19953;-66
2021/12/17 08:39:51;;;;;;;;;;;1.00;93.00;;;;;;5046327;28;20377;-65
2021/12/17 08:42:17;;;;;;;;;;;0.90;93.10;;;;;;5043747;28;19940;-65
2021/12/17 08:44:42;;;;;;;;;;;0.80;93.10;;;;;;5040799;28;19949;-65
2021/12/17 08:47:10;;;;;;;;;;;0.80;93.60;;;;;;5046933;28;19971;-65
2021/12/17 08:49:39;;;;;;;;;;;0.70;93.60;;;;;;5046772;28;19946;-65
2021/12/17 08:52:05;;;;;;;;;;;0.70;93.70;;;;;;5047838;28;19970;-66
2021/12/17 08:54:31;;;;;;;;;;;0.70;94.00;;;;;;5050032;28;20406;-66
2021/12/17 08:56:56;;;;;;;;;;;0.70;94.00;;;;;;5047768;28;19949;-66
2021/12/17 08:59:22;;;;;;;;;;;0.80;94.00;;;;;;5045938;28;19969;-66
2021/12/17 09:01:47;;;;;;;;;;;0.80;94.00;;;;;;5049125;28;19942;-66
2021/12/17 09:04:13;;;;;;;;;;;0.80;93.90;;;;;;5051245;28;20412;-66
2021/12/17 09:06:39;;;;;;;;;;;0.90;94.00;;;;;;5049413;28;20040;-66
2021/12/17 09:09:05;;;;;;;;;;;0.90;94.00;;;;;;5047846;28;20045;-66
2021/12/17 09:11:31;;;;;;;;;;;0.90;93.90;;;;;;5045226;28;20629;-66
2021/12/17 09:13:58;;;;;;;;;;;0.90;93.90;;;;;;5046528;28;20420;-66
2021/12/17 09:16:24;;;;;;;;;;;0.80;93.80;;;;;;5049583;28;19940;-66
2021/12/17 09:18:54;;;;;;;;;;;0.80;93.90;;;;;;5044234;28;19967;-66
2021/12/17 09:21:19;;;;;;;;;;;0.80;94.10;;;;;;5050844;28;20417;-66
2021/12/17 09:23:45;;;;;;;;;;;0.90;94.10;;;;;;5046508;28;19977;-66
2021/12/17 09:26:11;;;;;;;;;;;1.00;94.20;;;;;;5051236;28;20020;-66
2021/12/17 09:28:37;;;;;;;;;;;0.90;93.90;;;;;;5049565;28;19943;-66
2021/12/17 09:31:05;;;;;;;;;;;0.90;94.20;;;;;;5045280;28;19996;-66
2021/12/17 09:33:31;;;;;;;;;;;1.00;94.30;;;;;;5050936;28;19986;-66
2021/12/17 09:35:56;;;;;;;;;;;1.00;94.00;;;;;;5052230;28;19950;-66
2021/12/17 09:38:22;;;;;;;;;;;1.10;94.00;;;;;;5047620;28;19970;-66
2021/12/17 09:40:48;;;;;;;;;;;1.10;93.90;;;;;;5048186;28;19968;-66
2021/12/17 09:43:15;;;;;;;;;;;1.10;93.80;;;;;;5047417;28;19949;-66
2021/12/17 09:45:40;;;;;;;;;;;1.00;93.70;;;;;;5050857;28;19954;-66
2021/12/17 09:48:06;;;;;;;;;;;1.00;93.80;;;;;;5048342;28;19955;-66
2021/12/17 09:50:31;;;;;;;;;;;1.00;93.90;;;;;;5049437;28;19950;-66
2021/12/17 09:52:57;;;;;;;;;;;1.10;94.20;;;;;;5049975;28;20448;-66
2021/12/17 09:55:23;;;;;;;;;;;1.10;94.40;;;;;;5050647;28;19954;-66
2021/12/17 09:57:49;;;;;;;;;;;1.20;94.40;;;;;;5051226;28;19964;-66
2021/12/17 10:00:17;;;;;;;;;;;1.10;94.30;;;;;;5052036;28;20365;-66
2021/12/17 10:02:46;;;;;;;;;;;1.10;94.40;;;;;;5043002;28;20355;-66
2021/12/17 10:05:13;;;;;;;;;;;1.10;94.50;;;;;;5050242;28;20323;-66
2021/12/17 10:07:41;;;;;;;;;;;1.30;94.50;;;;;;5048739;28;19949;-66
2021/12/17 10:10:07;;;;;;;;;;;1.40;94.30;;;;;;5049918;28;19956;-66
2021/12/17 10:12:34;;;;;;;;;;;1.40;94.30;;;;;;5049840;28;19961;-66
2021/12/17 10:15:07;;;;;;;;;;;1.50;94.20;;;;;;5051771;28;19955;-66
2021/12/17 10:17:34;;;;;;;;;;;1.60;94.10;;;;;;5048692;28;19946;-66
2021/12/17 10:20:00;;;;;;;;;;;1.90;94.20;;;;;;5050497;28;19948;-66
2021/12/17 10:22:26;;;;;;;;;;;2.10;93.90;;;;;;5051789;28;19968;-66
2021/12/17 10:24:59;;;;;;;;;;;2.00;93.10;;;;;;5048990;28;20458;-66
2021/12/17 10:27:27;;;;;;;;;;;2.20;93.00;;;;;;5051283;28;19940;-66
2021/12/17 10:29:53;;;;;;;;;;;2.20;92.00;;;;;;5049388;28;19954;-66
2021/12/17 10:32:20;;;;;;;;;;;2.20;91.90;;;;;;5049686;28;19942;-66
2021/12/17 10:34:59;;;;;;;;;;;2.30;91.40;;;;;;5049070;28;19942;-66
2021/12/17 10:37:55;;;;;;;;;;;2.30;91.20;;;;;;5050243;28;19960;-66
2021/12/17 10:40:22;;;;;;;;;;;2.20;91.30;;;;;;5048541;28;19987;-66
2021/12/17 10:42:58;;;;;;;;;;;2.40;91.60;;;;;;5046827;28;19981;-66
2021/12/17 10:45:32;;;;;;;;;;;2.50;91.40;;;;;;5047535;28;20042;-66
2021/12/17 10:48:02;;;;;;;;;;;2.60;91.40;;;;;;5048953;28;19945;-66
2021/12/17 10:50:28;;;;;;;;;;;2.80;91.30;;;;;;5048767;28;19941;-66
2021/12/17 10:52:56;;;;;;;;;;;2.80;90.90;;;;;;5050779;28;19968;-66
2021/12/17 10:55:22;;;;;;;;;;;2.80;90.80;;;;;;5053013;28;19997;-66
2021/12/17 10:57:49;;;;;;;;;;;2.80;90.90;;;;;;5051319;28;19972;-66
2021/12/17 11:00:16;;;;;;;;;;;2.70;90.90;;;;;;5053372;28;20420;-66
2021/12/17 11:02:52;;;;;;;;;;;2.80;91.70;;;;;;5052935;28;19948;-65
2021/12/17 11:05:17;;;;;;;;;;;2.90;91.50;;;;;;5053880;28;19992;-65
2021/12/17 11:07:47;;;;;;;;;;;2.90;91.30;;;;;;5053872;28;19977;-65
2021/12/17 11:10:13;;;;;;;;;;;3.00;91.60;;;;;;5054476;28;19996;-66
2021/12/17 11:12:42;;;;;;;;;;;3.20;91.60;;;;;;5053935;28;19974;-66
2021/12/17 11:15:10;;;;;;;;;;;3.30;91.10;;;;;;5053680;28;20396;-65
2021/12/17 11:17:36;;;;;;;;;;;3.40;90.60;;;;;;5052131;28;19996;-66
2021/12/17 11:20:07;;;;;;;;;;;3.60;90.40;;;;;;5054669;28;20056;-65
2021/12/17 11:22:34;;;;;;;;;;;3.70;89.80;;;;;;5054450;28;20013;-65
2021/12/17 11:25:00;;;;;;;;;;;3.90;89.60;;;;;;5056153;28;19952;-65
2021/12/17 11:27:26;;;;;;;;;;;4.10;89.50;;;;;;5056100;28;19970;-65
2021/12/17 11:29:52;;;;;;;;;;;4.40;88.50;;;;;;5056087;28;19943;-66
2021/12/17 11:32:19;;;;;;;;;;;4.30;87.60;;;;;;5056025;28;20326;-65
2021/12/17 11:34:44;;;;;;;;;;;4.20;88.40;;;;;;5056084;28;20388;-65
2021/12/17 11:37:10;;;;;;;;;;;3.80;88.80;;;;;;5054928;28;19994;-65
2021/12/17 11:39:40;;;;;;;;;;;3.70;89.90;;;;;;5056176;28;19960;-65
2021/12/17 11:42:28;;;;;;;;;;;3.70;89.90;;;;;;5055920;28;19985;-65
2021/12/17 11:45:23;;;;;;;;;;;3.70;90.10;;;;;;5055975;28;19993;-65
2021/12/17 11:47:41;;;;;;;;;;;3.80;89.90;;;;;;5055722;28;20317;-65
2021/12/17 11:50:08;;;;;;;;;;;3.90;90.20;;;;;;5054846;28;20005;-65
2021/12/17 11:52:34;;;;;;;;;;;4.00;89.80;;;;;;5054989;28;19951;-65
2021/12/17 11:55:18;;;;;;;;;;;4.00;89.60;;;;;;5053097;28;20076;-65
2021/12/17 11:57:44;;;;;;;;;;;3.90;89.30;;;;;;5053977;28;20013;-65
2021/12/17 12:00:14;;;;;;;;;;;3.90;89.70;;;;;;5054935;28;19989;-66
2021/12/17 12:02:46;;;;;;;;;;;3.90;90.30;;;;;;5055434;28;19941;-65
2021/12/17 12:05:31;;;;;;;;;;;3.90;90.00;;;;;;5054471;28;20558;-65
2021/12/17 12:08:16;;;;;;;;;;;3.80;90.30;;;;;;5055346;28;19938;-65
2021/12/17 12:10:42;;;;;;;;;;;3.70;90.70;;;;;;5055157;28;19990;-65
2021/12/17 12:13:07;;;;;;;;;;;3.80;90.90;;;;;;5055367;28;20411;-65
2021/12/17 12:15:34;;;;;;;;;;;3.70;90.90;;;;;;5055281;28;19940;-65
2021/12/17 12:18:02;;;;;;;;;;;3.60;91.40;;;;;;5053978;28;20339;-65
2021/12/17 12:23:26;;;;;;;;;;;3.80;91.20;;;;;;5055146;28;20040;-65
2021/12/17 12:26:04;;;;;;;;;;;3.90;90.90;;;;;;5051912;28;20227;-65
2021/12/17 12:28:48;;;;;;;;;;;3.70;90.90;;;;;;5053736;28;19949;-65
2021/12/17 12:31:17;;;;;;;;;;;3.80;91.10;;;;;;5051554;28;20011;-65
2021/12/17 12:34:02;;;;;;;;;;;3.90;91.00;;;;;;5053393;28;19957;-65
2021/12/17 12:36:42;;;;;;;;;;;3.90;90.90;;;;;;5038637;28;20018;-65
2021/12/17 12:39:17;;;;;;;;;;;4.10;91.00;;;;;;5045001;28;20390;-65
2021/12/17 12:41:56;;;;;;;;;;;4.00;90.30;;;;;;5042255;28;19955;-65
2021/12/17 12:44:39;;;;;;;;;;;3.90;90.70;;;;;;5038271;28;20144;-65
2021/12/17 12:47:06;;;;;;;;;;;3.80;91.20;;;;;;5042618;28;19984;-65
2021/12/17 12:49:41;;;;;;;;;;;3.80;90.90;;;;;;5048441;28;19952;-66
2021/12/17 12:52:25;;;;;;;;;;;3.70;91.00;;;;;;5051551;28;19947;-66
2021/12/17 12:54:52;;;;;;;;;;;3.70;91.20;;;;;;5049502;28;20045;-65
2021/12/17 12:57:30;;;;;;;;;;;4.00;90.70;;;;;;5049130;28;19948;-65
2021/12/17 12:59:57;;;;;;;;;;;4.40;89.80;;;;;;5041985;28;19959;-65
2021/12/17 13:02:26;;;;;;;;;;;4.90;87.70;;;;;;5048997;28;19969;-66
2021/12/17 13:04:54;;;;;;;;;;;5.50;85.80;;;;;;5046606;28;19960;-65
2021/12/17 13:07:35;;;;;;;;;;;5.90;83.60;;;;;;5048980;28;19970;-65
2021/12/17 13:12:25;;;;;;;;;;;6.40;81.40;;;;;;5056393;22;19979;-65
2021/12/17 13:14:55;;;;;;;;;;;6.50;81.10;;;;;;5051162;28;19949;-65
2021/12/17 13:20:53;;;;;;;;;;;6.60;81.40;;;;;;5037154;28;19983;-65
2021/12/17 13:23:19;;;;;;;;;;;6.20;80.80;;;;;;5048636;28;20604;-65
2021/12/17 13:25:44;;;;;;;;;;;5.40;83.10;;;;;;5048260;28;19954;-66
2021/12/17 13:28:10;;;;;;;;;;;5.00;85.10;;;;;;5049567;28;19980;-66
2021/12/17 13:30:36;;;;;;;;;;;4.80;86.30;;;;;;5051403;28;19999;-65
2021/12/17 13:33:02;;;;;;;;;;;4.50;87.20;;;;;;5049483;28;19946;-66
2021/12/17 13:35:33;;;;;;;;;;;4.10;88.40;;;;;;5051924;28;19956;-66
2021/12/17 13:38:02;;;;;;;;;;;3.90;89.60;;;;;;5049994;28;19969;-66
2021/12/17 13:40:28;;;;;;;;;;;3.70;90.60;;;;;;5049468;28;20398;-66
2021/12/17 13:42:55;;;;;;;;;;;3.40;91.60;;;;;;5049376;28;19948;-66
2021/12/17 13:45:21;;;;;;;;;;;3.30;92.20;;;;;;5049756;28;19941;-66
2021/12/17 13:47:48;;;;;;;;;;;3.10;92.70;;;;;;5050021;28;19967;-66
2021/12/17 13:50:23;;;;;;;;;;;3.00;93.30;;;;;;5048677;28;19953;-66
2021/12/17 13:52:58;;;;;;;;;;;3.00;93.60;;;;;;5049423;28;20261;-66
2021/12/17 13:55:23;;;;;;;;;;;3.00;93.90;;;;;;5048056;28;20514;-66
2021/12/17 13:57:50;;;;;;;;;;;3.10;94.20;;;;;;5050354;28;19969;-66
2021/12/17 14:00:17;;;;;;;;;;;3.10;94.20;;;;;;5048172;28;19947;-66
2021/12/17 14:02:44;;;;;;;;;;;3.10;94.00;;;;;;5047271;28;19948;-66
2021/12/17 14:05:10;;;;;;;;;;;3.20;94.10;;;;;;5049647;28;19951;-66
2021/12/17 14:07:37;;;;;;;;;;;3.40;94.20;;;;;;5049170;28;19953;-66
2021/12/17 14:10:11;;;;;;;;;;;3.50;94.20;;;;;;5048298;28;19998;-66
2021/12/17 14:12:39;;;;;;;;;;;3.50;93.80;;;;;;5044036;28;19949;-66
2021/12/17 14:15:08;;;;;;;;;;;3.60;93.80;;;;;;5050532;28;19947;-66
2021/12/17 14:17:34;;;;;;;;;;;3.90;93.70;;;;;;5048882;28;19976;-66
2021/12/17 14:20:06;;;;;;;;;;;4.10;93.40;;;;;;5047975;28;19950;-66
2021/12/17 14:22:34;;;;;;;;;;;4.10;92.30;;;;;;5049689;28;19965;-66
2021/12/17 14:25:00;;;;;;;;;;;3.90;91.40;;;;;;5049662;28;19947;-66
2021/12/17 14:27:44;;;;;;;;;;;3.80;91.50;;;;;;5048746;28;20602;-66
2021/12/17 14:30:10;;;;;;;;;;;3.80;91.50;;;;;;5049405;28;19948;-66
2021/12/17 14:32:40;;;;;;;;;;;3.90;91.30;;;;;;5047563;28;19985;-66
2021/12/17 14:35:06;;;;;;;;;;;3.80;91.10;;;;;;5042429;28;19948;-66
2021/12/17 14:37:44;;;;;;;;;;;3.80;91.30;;;;;;5051198;28;20359;-66
2021/12/17 14:40:34;;;;;;;;;;;3.80;91.50;;;;;;5046793;28;20444;-66
2021/12/17 14:43:00;;;;;;;;;;;3.70;91.70;;;;;;5048935;28;19976;-66
2021/12/17 14:45:35;;;;;;;;;;;3.70;91.70;;;;;;5048481;28;20435;-66
2021/12/17 14:48:17;;;;;;;;;;;3.50;91.80;;;;;;5048344;28;19950;-66
2021/12/17 15:00:23;;;;;;;;;;;3.20;92.90;;;;;;5050477;28;20437;-65
2021/12/17 15:02:26;;;;;;;;;;;3.20;93.30;;;;;;5041349;28;19954;-66
2021/12/17 15:04:52;;;;;;;;;;;3.30;93.20;;;;;;5049788;28;20008;-66
2021/12/17 15:07:19;;;;;;;;;;;3.30;93.00;;;;;;5048554;28;19961;-66
2021/12/17 15:09:46;;;;;;;;;;;3.20;93.20;;;;;;5047804;28;19990;-66
2021/12/17 15:12:26;;;;;;;;;;;3.20;93.20;;;;;;5050080;28;19979;-66
2021/12/17 15:14:52;;;;;;;;;;;3.10;93.50;;;;;;5047530;28;20025;-65
2021/12/17 15:17:18;;;;;;;;;;;3.10;93.80;;;;;;5048834;28;20307;-66
2021/12/17 15:19:43;;;;;;;;;;;3.00;93.90;;;;;;5046692;28;20021;-65
2021/12/17 15:22:09;;;;;;;;;;;2.90;94.10;;;;;;5049345;28;20062;-66
2021/12/17 15:24:34;;;;;;;;;;;2.90;94.20;;;;;;5050161;28;19945;-66
2021/12/17 15:27:00;;;;;;;;;;;2.80;94.40;;;;;;5047803;28;19949;-66
2021/12/17 15:29:27;;;;;;;;;;;2.70;94.20;;;;;;5049566;28;19949;-66
2021/12/17 15:31:53;;;;;;;;;;;2.40;94.10;;;;;;5048534;28;20412;-66
2021/12/17 15:34:19;;;;;;;;;;;2.10;94.60;;;;;;5049699;28;19944;-65
2021/12/17 15:36:44;;;;;;;;;;;2.00;95.20;;;;;;5048839;28;19955;-66
2021/12/17 15:39:10;;;;;;;;;;;1.80;95.50;;;;;;5052224;28;20345;-65
2021/12/17 15:41:39;;;;;;;;;;;1.70;95.90;;;;;;5054838;28;19952;-66
2021/12/17 15:44:05;;;;;;;;;;;1.70;96.10;;;;;;5046686;28;19948;-66
2021/12/17 15:46:31;;;;;;;;;;;1.60;96.20;;;;;;5050824;28;19957;-66
2021/12/17 15:48:56;;;;;;;;;;;1.50;96.20;;;;;;5054648;28;20402;-66
2021/12/17 15:51:22;;;;;;;;;;;1.50;96.10;;;;;;5053585;28;20001;-66
2021/12/17 15:53:47;;;;;;;;;;;1.50;96.20;;;;;;5052114;28;19986;-66
2021/12/17 15:56:13;;;;;;;;;;;1.50;96.30;;;;;;5053808;28;20359;-66
2021/12/17 15:58:38;;;;;;;;;;;1.60;96.30;;;;;;5052116;28;19960;-65
2021/12/17 16:01:04;;;;;;;;;;;1.60;96.30;;;;;;5055982;28;19984;-66
2021/12/17 16:03:35;;;;;;;;;;;1.60;96.30;;;;;;5049571;28;19962;-66
2021/12/17 16:06:03;;;;;;;;;;;1.60;96.40;;;;;;5051109;28;19956;-66
2021/12/17 16:08:31;;;;;;;;;;;1.50;96.20;;;;;;5054646;28;20053;-66
2021/12/17 16:21:48;;;;;;;;;;;1.20;96.30;;;;;;5019293;28;20287;-66
2021/12/17 16:24:14;;;;;;;;;;;1.00;96.10;;;;;;5053623;28;20411;-66
2021/12/17 16:26:39;;;;;;;;;;;1.10;96.30;;;;;;5051589;28;19944;-66
2021/12/17 16:29:05;;;;;;;;;;;1.20;96.40;;;;;;5053171;28;19947;-66
2021/12/17 16:31:31;;;;;;;;;;;1.30;96.40;;;;;;5053337;28;19953;-66
2021/12/17 16:34:01;;;;;;;;;;;1.50;96.60;;;;;;5053445;28;19962;-66
2021/12/17 16:36:28;;;;;;;;;;;1.40;96.50;;;;;;5051967;28;19948;-65
2021/12/17 16:38:54;;;;;;;;;;;1.60;96.40;;;;;;5050985;28;19959;-66
2021/12/17 16:41:20;;;;;;;;;;;1.70;96.50;;;;;;5045005;28;20394;-66
2021/12/17 16:43:46;;;;;;;;;;;1.90;96.50;;;;;;5050506;28;19956;-66
2021/12/17 16:46:26;;;;;;;;;;;2.00;96.30;;;;;;5049793;28;19965;-66
2021/12/17 16:48:52;;;;;;;;;;;1.90;95.90;;;;;;5048526;28;19990;-66
2021/12/17 16:51:18;;;;;;;;;;;1.90;95.70;;;;;;5050607;28;19946;-66
2021/12/17 16:53:44;;;;;;;;;;;2.00;95.50;;;;;;5052895;28;20037;-66
2021/12/17 16:56:10;;;;;;;;;;;1.80;94.80;;;;;;5050272;28;19958;-66
2021/12/17 16:58:36;;;;;;;;;;;1.80;94.80;;;;;;5038980;28;19976;-66
2021/12/17 17:01:01;;;;;;;;;;;1.80;94.70;;;;;;5046929;28;19953;-66
2021/12/17 17:03:28;;;;;;;;;;;1.60;94.60;;;;;;5052719;28;19956;-66
2021/12/17 17:05:54;;;;;;;;;;;1.70;94.60;;;;;;5050197;28;19994;-66
2021/12/17 17:08:19;;;;;;;;;;;1.50;94.50;;;;;;5052604;28;20406;-66
2021/12/17 17:10:51;;;;;;;;;;;1.30;94.00;;;;;;5051625;28;20307;-66
2021/12/17 17:13:18;;;;;;;;;;;1.30;94.30;;;;;;5050852;28;19971;-66
2021/12/17 17:15:44;;;;;;;;;;;1.20;94.40;;;;;;5051386;28;19948;-66
2021/12/17 17:18:10;;;;;;;;;;;1.20;94.30;;;;;;5052387;28;20004;-66
2021/12/17 17:20:35;;;;;;;;;;;1.30;94.20;;;;;;5052007;28;19943;-66
2021/12/17 17:23:01;;;;;;;;;;;1.20;94.00;;;;;;5052337;28;19955;-66
2021/12/17 17:25:28;;;;;;;;;;;1.20;93.50;;;;;;5052293;28;19946;-66
2021/12/17 17:27:55;;;;;;;;;;;1.10;93.60;;;;;;5052621;28;19985;-66
2021/12/17 17:30:21;;;;;;;;;;;0.90;93.40;;;;;;5051382;28;19946;-66
2021/12/17 17:32:47;;;;;;;;;;;0.90;93.60;;;;;;5052274;28;19949;-66
2021/12/17 17:35:13;;;;;;;;;;;0.70;93.40;;;;;;5051778;28;20671;-67
2021/12/17 17:37:38;;;;;;;;;;;0.70;93.70;;;;;;5050669;28;19941;-66
2021/12/17 17:40:05;;;;;;;;;;;0.50;93.50;;;;;;5050312;28;20484;-66
2021/12/17 17:42:31;;;;;;;;;;;0.30;93.60;;;;;;5049294;28;19950;-66
2021/12/17 17:44:56;;;;;;;;;;;0.40;94.20;;;;;;5053111;28;19951;-66
2021/12/17 17:47:22;;;;;;;;;;;0.60;94.30;;;;;;5053569;28;19951;-66
2021/12/17 17:49:48;;;;;;;;;;;0.60;94.40;;;;;;5053449;28;19941;-66
2021/12/17 17:52:14;;;;;;;;;;;0.70;94.30;;;;;;5052278;28;19948;-66
2021/12/17 17:54:40;;;;;;;;;;;0.70;94.20;;;;;;5053381;28;19979;-66